עמוד ראשי
METAR-TAF:

METAR-TAF

שדות תעופה :

Ruby, אלסקה, ארצות הברית

קו רוחב: 64-43-38N, קו אורך: 155-28-12W, גובה: 201מטר

תצפית מזג אוויר נוכחית

הדו"ח נערך לפני 21דקות, בשעה 09:56 UTC
רוח 5קשר מכיוון מזרח/צפון-מזרח
טמפרטורת 11 צלסיוס
לחות 100%
לחץ 1012 hPa
ראות: 16.1קילומטר
עננים פזורים בגובה 9000רגל

METAR: PARY 120956Z AUTO 06005KT 10SM SCT090 11/11 A2987 RMK AO2 SLP118 T01110106 TSNO PNO $

זמן: 02:17 (10:17 UTC)


TAF: חסר

תצפיות ותחזיות מזג אוויר לגבי יותר מ- 4,000 שדות תעופה ברחבי העולם. דוחות METAR ו- TAF.

התחנות הזמינות מסומנות בנקודות צהובות ואדומות על גבי המפה.

העבר את העכבר לנקודה הצבעונית על מנת לראות את שם התחנה.

לאחר מכן, לחץ כדי לראות את תוכן ואת תחזיות מזג האוויר.

כדי לשנות את המפה: לחץ על הכפתורים הירוקים עם הפלוס השחור כדי להתקרב; על הכפתור הירוק עם המקף כדי להתרחק; או בחיצים הירוקים למפות סמוכות.


METAR-TAF: